Airport Name : Gander Intl

Other Name : Gander Intl

ICAO : CYQX

IATA : YQX

FAA :

Latitude : 48.936944

Longitude : -54.568056

Country : Canada

Local Date and Time : 21 Jul 2024 05:25

 

TAF (Terminal Aerodrome Forecast)

TAF CYQX 210540Z 2106/2206 24008KT P6SM FEW060 BECMG 2114/2116 21015KT FM211800 21015G25KT P6SM FEW050 SCT240 FM212200 21015G25KT P6SM FEW240 FM220400 22012G22KT P6SM -SHRA BKN030 BECMG 2204/2206 28010G20KT RMK NXT FCST BY 211200Z

 

METAR (METeorological Aerodrome Report)

CYQX 210700Z 23010KT 20SM SCT068 BKN200 18/14 A2992 RMK AC4CC1 CONTRAILS SLP134 DENSITY ALT 1000FT

CYQX 210600Z 24011KT 20SM FEW070 18/14 A2992 RMK AC2 SLP135 DENSITY ALT 1000FT

CYQX 210500Z 24008KT 20SM FEW060 18/14 A2993 RMK SC1 SLP137 DENSITY ALT 1000FT

CYQX 210400Z 25010KT 20SM FEW070 20/14 A2993 RMK AC1 SLP137 DENSITY ALT 1200FT